Terminal Aerodrome Forecast
Issued by NWS Bismarck, ND

Home | Current Version | Previous Version | Text Only | Print | Product List | Glossary Off
Versions: 1 2 3 4 5 6 7 8 9 10 11 12 13 14

613
FTUS43 KBIS 281730
TAFISN
TAF
KISN 281730Z 2818/2918 24008KT P6SM SCT250
     FM290000 31009KT P6SM SCT250
     FM290400 34007KT P6SM SCT250
     FM291100 01006KT P6SM SCT250=

USA.gov is the U.S. government's official web portal to all federal, state and local government web resources and services.